sensor_id;sensor_type;location;lat;lon;timestamp;P1;durP1;ratioP1;P2;durP2;ratioP2
51010;SDS011;37038;50.182;8.624;2024-02-23T00:01:32;2.90;;;1.20;;
51010;SDS011;37038;50.182;8.624;2024-02-23T00:04:20;2.22;;;1.27;;
51010;SDS011;37038;50.182;8.624;2024-02-23T00:07:08;1.85;;;1.10;;
51010;SDS011;37038;50.182;8.624;2024-02-23T00:09:56;1.48;;;1.38;;
51010;SDS011;37038;50.182;8.624;2024-02-23T00:12:44;7.45;;;1.42;;
51010;SDS011;37038;50.182;8.624;2024-02-23T00:15:34;2.03;;;1.60;;
51010;SDS011;37038;50.182;8.624;2024-02-23T00:18:22;1.65;;;1.55;;
51010;SDS011;37038;50.182;8.624;2024-02-23T00:21:10;2.90;;;1.42;;
51010;SDS011;37038;50.182;8.624;2024-02-23T00:23:57;2.67;;;1.60;;
51010;SDS011;37038;50.182;8.624;2024-02-23T00:26:45;2.67;;;1.42;;
51010;SDS011;37038;50.182;8.624;2024-02-23T00:29:35;4.15;;;1.60;;
51010;SDS011;37038;50.182;8.624;2024-02-23T00:32:23;2.28;;;1.40;;
51010;SDS011;37038;50.182;8.624;2024-02-23T00:35:11;2.63;;;1.38;;
51010;SDS011;37038;50.182;8.624;2024-02-23T00:37:59;3.17;;;1.42;;
51010;SDS011;37038;50.182;8.624;2024-02-23T00:40:47;12.88;;;1.73;;
51010;SDS011;37038;50.182;8.624;2024-02-23T00:43:40;1.27;;;1.17;;
51010;SDS011;37038;50.182;8.624;2024-02-23T00:46:37;2.97;;;1.70;;
51010;SDS011;37038;50.182;8.624;2024-02-23T00:49:24;5.70;;;1.48;;
51010;SDS011;37038;50.182;8.624;2024-02-23T00:52:12;2.10;;;1.65;;
51010;SDS011;37038;50.182;8.624;2024-02-23T00:55:00;2.40;;;1.50;;
51010;SDS011;37038;50.182;8.624;2024-02-23T00:57:48;4.53;;;1.27;;
51010;SDS011;37038;50.182;8.624;2024-02-23T01:00:36;2.95;;;1.70;;
51010;SDS011;37038;50.182;8.624;2024-02-23T01:03:24;4.20;;;1.83;;
51010;SDS011;37038;50.182;8.624;2024-02-23T01:06:12;2.90;;;1.42;;
51010;SDS011;37038;50.182;8.624;2024-02-23T01:09:02;2.55;;;1.60;;
51010;SDS011;37038;50.182;8.624;2024-02-23T01:11:51;3.38;;;1.63;;
51010;SDS011;37038;50.182;8.624;2024-02-23T01:14:39;1.80;;;1.55;;
51010;SDS011;37038;50.182;8.624;2024-02-23T01:17:29;4.32;;;1.65;;
51010;SDS011;37038;50.182;8.624;2024-02-23T01:20:17;1.67;;;1.52;;
51010;SDS011;37038;50.182;8.624;2024-02-23T01:23:05;2.20;;;1.60;;
51010;SDS011;37038;50.182;8.624;2024-02-23T01:25:53;5.55;;;1.98;;
51010;SDS011;37038;50.182;8.624;2024-02-23T01:28:41;1.02;;;0.90;;
51010;SDS011;37038;50.182;8.624;2024-02-23T01:31:29;3.17;;;1.25;;
51010;SDS011;37038;50.182;8.624;2024-02-23T01:34:17;1.33;;;1.23;;
51010;SDS011;37038;50.182;8.624;2024-02-23T01:37:04;1.23;;;1.15;;
51010;SDS011;37038;50.182;8.624;2024-02-23T01:39:52;3.08;;;1.35;;
51010;SDS011;37038;50.182;8.624;2024-02-23T01:42:41;1.25;;;0.90;;
51010;SDS011;37038;50.182;8.624;2024-02-23T01:45:29;1.38;;;1.17;;
51010;SDS011;37038;50.182;8.624;2024-02-23T01:48:18;3.03;;;1.20;;
51010;SDS011;37038;50.182;8.624;2024-02-23T01:51:07;1.55;;;1.00;;
51010;SDS011;37038;50.182;8.624;2024-02-23T01:54:08;2.28;;;0.98;;
51010;SDS011;37038;50.182;8.624;2024-02-23T01:57:23;4.35;;;1.85;;
51010;SDS011;37038;50.182;8.624;2024-02-23T02:00:35;1.65;;;1.33;;
51010;SDS011;37038;50.182;8.624;2024-02-23T02:03:26;1.65;;;1.55;;
51010;SDS011;37038;50.182;8.624;2024-02-23T02:06:14;3.40;;;1.27;;
51010;SDS011;37038;50.182;8.624;2024-02-23T02:09:02;2.00;;;1.13;;
51010;SDS011;37038;50.182;8.624;2024-02-23T02:11:51;3.58;;;1.48;;
51010;SDS011;37038;50.182;8.624;2024-02-23T02:14:44;3.90;;;1.55;;
51010;SDS011;37038;50.182;8.624;2024-02-23T02:17:34;2.10;;;1.27;;
51010;SDS011;37038;50.182;8.624;2024-02-23T02:20:33;1.75;;;1.30;;
51010;SDS011;37038;50.182;8.624;2024-02-23T02:23:30;1.35;;;1.10;;
51010;SDS011;37038;50.182;8.624;2024-02-23T02:26:22;5.07;;;1.67;;
51010;SDS011;37038;50.182;8.624;2024-02-23T02:29:43;2.92;;;1.10;;
51010;SDS011;37038;50.182;8.624;2024-02-23T02:32:36;2.17;;;1.25;;
51010;SDS011;37038;50.182;8.624;2024-02-23T02:35:34;2.60;;;1.60;;
51010;SDS011;37038;50.182;8.624;2024-02-23T02:38:35;4.68;;;1.30;;
51010;SDS011;37038;50.182;8.624;2024-02-23T02:41:45;2.28;;;1.38;;
51010;SDS011;37038;50.182;8.624;2024-02-23T02:44:38;7.28;;;2.47;;
51010;SDS011;37038;50.182;8.624;2024-02-23T02:47:30;3.47;;;1.83;;
51010;SDS011;37038;50.182;8.624;2024-02-23T02:50:35;4.60;;;1.40;;
51010;SDS011;37038;50.182;8.624;2024-02-23T02:53:35;4.10;;;1.40;;
51010;SDS011;37038;50.182;8.624;2024-02-23T02:56:32;3.13;;;1.77;;
51010;SDS011;37038;50.182;8.624;2024-02-23T02:59:25;3.10;;;1.40;;
51010;SDS011;37038;50.182;8.624;2024-02-23T03:02:20;4.53;;;1.20;;
51010;SDS011;37038;50.182;8.624;2024-02-23T03:05:19;3.22;;;1.30;;
51010;SDS011;37038;50.182;8.624;2024-02-23T03:08:14;3.45;;;1.40;;
51010;SDS011;37038;50.182;8.624;2024-02-23T03:11:05;3.25;;;1.35;;
51010;SDS011;37038;50.182;8.624;2024-02-23T03:13:56;3.45;;;1.30;;
51010;SDS011;37038;50.182;8.624;2024-02-23T03:16:45;4.07;;;1.40;;
51010;SDS011;37038;50.182;8.624;2024-02-23T03:19:37;3.38;;;1.23;;
51010;SDS011;37038;50.182;8.624;2024-02-23T03:22:32;8.45;;;1.80;;
51010;SDS011;37038;50.182;8.624;2024-02-23T03:25:20;2.35;;;1.40;;
51010;SDS011;37038;50.182;8.624;2024-02-23T03:28:22;5.32;;;1.77;;
51010;SDS011;37038;50.182;8.624;2024-02-23T03:31:26;3.15;;;1.70;;
51010;SDS011;37038;50.182;8.624;2024-02-23T03:34:22;4.65;;;1.65;;
51010;SDS011;37038;50.182;8.624;2024-02-23T03:37:23;2.90;;;1.38;;
51010;SDS011;37038;50.182;8.624;2024-02-23T03:40:23;3.72;;;1.58;;
51010;SDS011;37038;50.182;8.624;2024-02-23T03:43:22;2.35;;;1.50;;
51010;SDS011;37038;50.182;8.624;2024-02-23T03:46:22;5.45;;;1.50;;
51010;SDS011;37038;50.182;8.624;2024-02-23T03:52:18;6.13;;;1.50;;
51010;SDS011;37038;50.182;8.624;2024-02-23T03:55:41;2.80;;;1.65;;
51010;SDS011;37038;50.182;8.624;2024-02-23T03:58:38;6.93;;;1.40;;
51010;SDS011;37038;50.182;8.624;2024-02-23T04:01:55;6.78;;;2.05;;
51010;SDS011;37038;50.182;8.624;2024-02-23T04:05:10;4.03;;;1.80;;
51010;SDS011;37038;50.182;8.624;2024-02-23T04:07:58;5.03;;;1.88;;
51010;SDS011;37038;50.182;8.624;2024-02-23T04:11:12;4.70;;;1.92;;
51010;SDS011;37038;50.182;8.624;2024-02-23T04:14:07;8.25;;;1.65;;
51010;SDS011;37038;50.182;8.624;2024-02-23T04:16:58;4.05;;;1.70;;
51010;SDS011;37038;50.182;8.624;2024-02-23T04:19:52;7.38;;;1.77;;
51010;SDS011;37038;50.182;8.624;2024-02-23T04:22:42;5.57;;;1.63;;
51010;SDS011;37038;50.182;8.624;2024-02-23T04:25:33;4.78;;;1.55;;
51010;SDS011;37038;50.182;8.624;2024-02-23T04:28:20;2.35;;;1.50;;
51010;SDS011;37038;50.182;8.624;2024-02-23T04:31:12;5.10;;;1.75;;
51010;SDS011;37038;50.182;8.624;2024-02-23T04:34:00;6.43;;;1.55;;
51010;SDS011;37038;50.182;8.624;2024-02-23T04:36:52;9.15;;;2.05;;
51010;SDS011;37038;50.182;8.624;2024-02-23T04:39:43;7.68;;;1.70;;
51010;SDS011;37038;50.182;8.624;2024-02-23T04:42:31;7.40;;;1.88;;
51010;SDS011;37038;50.182;8.624;2024-02-23T04:45:20;7.65;;;2.88;;
51010;SDS011;37038;50.182;8.624;2024-02-23T04:48:08;4.30;;;1.92;;
51010;SDS011;37038;50.182;8.624;2024-02-23T04:50:59;3.42;;;1.92;;
51010;SDS011;37038;50.182;8.624;2024-02-23T04:53:52;6.75;;;1.77;;
51010;SDS011;37038;50.182;8.624;2024-02-23T04:56:40;8.55;;;2.20;;
51010;SDS011;37038;50.182;8.624;2024-02-23T04:59:28;4.90;;;2.58;;
51010;SDS011;37038;50.182;8.624;2024-02-23T05:02:22;6.03;;;1.80;;
51010;SDS011;37038;50.182;8.624;2024-02-23T05:05:10;8.70;;;2.95;;
51010;SDS011;37038;50.182;8.624;2024-02-23T05:07:58;6.93;;;2.70;;
51010;SDS011;37038;50.182;8.624;2024-02-23T05:10:48;5.57;;;2.50;;
51010;SDS011;37038;50.182;8.624;2024-02-23T05:13:38;6.57;;;2.60;;
51010;SDS011;37038;50.182;8.624;2024-02-23T05:16:32;3.90;;;2.30;;
51010;SDS011;37038;50.182;8.624;2024-02-23T05:19:20;6.60;;;2.35;;
51010;SDS011;37038;50.182;8.624;2024-02-23T05:22:10;9.57;;;3.45;;
51010;SDS011;37038;50.182;8.624;2024-02-23T05:24:59;4.10;;;2.20;;
51010;SDS011;37038;50.182;8.624;2024-02-23T05:27:47;5.82;;;2.40;;
51010;SDS011;37038;50.182;8.624;2024-02-23T05:30:40;5.75;;;4.15;;
51010;SDS011;37038;50.182;8.624;2024-02-23T05:33:29;6.57;;;3.58;;
51010;SDS011;37038;50.182;8.624;2024-02-23T05:36:18;5.38;;;2.78;;
51010;SDS011;37038;50.182;8.624;2024-02-23T05:39:07;3.08;;;2.70;;
51010;SDS011;37038;50.182;8.624;2024-02-23T05:41:59;8.70;;;3.08;;
51010;SDS011;37038;50.182;8.624;2024-02-23T05:44:50;5.60;;;2.90;;
51010;SDS011;37038;50.182;8.624;2024-02-23T05:47:48;5.25;;;2.75;;
51010;SDS011;37038;50.182;8.624;2024-02-23T05:50:39;6.32;;;2.90;;
51010;SDS011;37038;50.182;8.624;2024-02-23T05:53:36;6.78;;;3.25;;
51010;SDS011;37038;50.182;8.624;2024-02-23T05:56:28;5.03;;;3.35;;
51010;SDS011;37038;50.182;8.624;2024-02-23T05:59:24;5.28;;;3.35;;
51010;SDS011;37038;50.182;8.624;2024-02-23T06:02:26;5.65;;;3.40;;
51010;SDS011;37038;50.182;8.624;2024-02-23T06:05:55;8.93;;;3.20;;
51010;SDS011;37038;50.182;8.624;2024-02-23T06:18:25;5.63;;;2.70;;
51010;SDS011;37038;50.182;8.624;2024-02-23T06:27:01;4.65;;;2.92;;
51010;SDS011;37038;50.182;8.624;2024-02-23T06:30:06;5.30;;;2.58;;
51010;SDS011;37038;50.182;8.624;2024-02-23T06:33:28;8.32;;;2.88;;
51010;SDS011;37038;50.182;8.624;2024-02-23T06:37:05;5.20;;;3.03;;
51010;SDS011;37038;50.182;8.624;2024-02-23T06:40:26;8.95;;;2.70;;
51010;SDS011;37038;50.182;8.624;2024-02-23T06:43:43;4.28;;;2.28;;
51010;SDS011;37038;50.182;8.624;2024-02-23T06:47:01;8.85;;;3.78;;
51010;SDS011;37038;50.182;8.624;2024-02-23T07:03:35;6.10;;;2.50;;
51010;SDS011;37038;50.182;8.624;2024-02-23T07:14:53;2.30;;;2.10;;
51010;SDS011;37038;50.182;8.624;2024-02-23T07:27:49;13.55;;;2.65;;
51010;SDS011;37038;50.182;8.624;2024-02-23T07:31:23;6.93;;;2.58;;
51010;SDS011;37038;50.182;8.624;2024-02-23T07:43:23;4.60;;;1.98;;
51010;SDS011;37038;50.182;8.624;2024-02-23T07:47:09;5.88;;;2.20;;
51010;SDS011;37038;50.182;8.624;2024-02-23T07:50:44;8.48;;;2.22;;
51010;SDS011;37038;50.182;8.624;2024-02-23T08:26:05;7.90;;;2.23;;
51010;SDS011;37038;50.182;8.624;2024-02-23T09:12:43;10.15;;;3.00;;
51010;SDS011;37038;50.182;8.624;2024-02-23T09:27:25;9.10;;;3.00;;
51010;SDS011;37038;50.182;8.624;2024-02-23T09:31:19;14.18;;;3.17;;
51010;SDS011;37038;50.182;8.624;2024-02-23T10:31:39;10.63;;;2.47;;
51010;SDS011;37038;50.182;8.624;2024-02-23T10:50:39;12.48;;;2.53;;
51010;SDS011;37038;50.182;8.624;2024-02-23T10:54:11;7.70;;;2.30;;
51010;SDS011;37038;50.182;8.624;2024-02-23T11:08:41;5.28;;;2.00;;
51010;SDS011;37038;50.182;8.624;2024-02-23T11:11:31;10.77;;;2.15;;
51010;SDS011;37038;50.182;8.624;2024-02-23T11:14:55;9.02;;;1.88;;
51010;SDS011;37038;50.182;8.624;2024-02-23T11:18:20;10.95;;;2.15;;
51010;SDS011;37038;50.182;8.624;2024-02-23T11:21:41;12.45;;;2.25;;
51010;SDS011;37038;50.182;8.624;2024-02-23T11:24:31;5.82;;;2.28;;
51010;SDS011;37038;50.182;8.624;2024-02-23T11:27:30;6.38;;;2.13;;
51010;SDS011;37038;50.182;8.624;2024-02-23T11:30:25;5.60;;;2.22;;
51010;SDS011;37038;50.182;8.624;2024-02-23T11:33:29;5.20;;;2.10;;
51010;SDS011;37038;50.182;8.624;2024-02-23T11:36:28;3.90;;;1.90;;
51010;SDS011;37038;50.182;8.624;2024-02-23T11:39:24;12.48;;;2.20;;
51010;SDS011;37038;50.182;8.624;2024-02-23T11:42:29;10.35;;;2.63;;
51010;SDS011;37038;50.182;8.624;2024-02-23T11:45:23;10.23;;;2.35;;
51010;SDS011;37038;50.182;8.624;2024-02-23T11:48:24;6.30;;;2.08;;
51010;SDS011;37038;50.182;8.624;2024-02-23T11:51:13;8.38;;;2.50;;
51010;SDS011;37038;50.182;8.624;2024-02-23T11:58:48;5.25;;;2.30;;
51010;SDS011;37038;50.182;8.624;2024-02-23T12:01:46;6.10;;;1.95;;
51010;SDS011;37038;50.182;8.624;2024-02-23T12:05:40;6.97;;;2.47;;
51010;SDS011;37038;50.182;8.624;2024-02-23T12:09:23;4.53;;;2.05;;
51010;SDS011;37038;50.182;8.624;2024-02-23T12:12:26;7.20;;;1.60;;
51010;SDS011;37038;50.182;8.624;2024-02-23T12:15:47;10.05;;;2.28;;
51010;SDS011;37038;50.182;8.624;2024-02-23T12:18:37;4.70;;;2.05;;
51010;SDS011;37038;50.182;8.624;2024-02-23T12:21:26;4.20;;;1.65;;
51010;SDS011;37038;50.182;8.624;2024-02-23T12:24:14;8.23;;;2.00;;
51010;SDS011;37038;50.182;8.624;2024-02-23T12:27:17;7.45;;;2.00;;
51010;SDS011;37038;50.182;8.624;2024-02-23T12:30:06;4.97;;;1.70;;
51010;SDS011;37038;50.182;8.624;2024-02-23T12:33:08;6.90;;;2.13;;
51010;SDS011;37038;50.182;8.624;2024-02-23T12:36:03;8.30;;;2.13;;
51010;SDS011;37038;50.182;8.624;2024-02-23T12:38:53;3.55;;;2.15;;
51010;SDS011;37038;50.182;8.624;2024-02-23T12:41:45;4.53;;;2.03;;
51010;SDS011;37038;50.182;8.624;2024-02-23T12:44:37;8.82;;;2.40;;
51010;SDS011;37038;50.182;8.624;2024-02-23T12:47:34;6.55;;;1.70;;
51010;SDS011;37038;50.182;8.624;2024-02-23T12:50:30;12.48;;;2.15;;
51010;SDS011;37038;50.182;8.624;2024-02-23T12:53:34;2.70;;;1.63;;
51010;SDS011;37038;50.182;8.624;2024-02-23T12:56:26;6.65;;;2.58;;
51010;SDS011;37038;50.182;8.624;2024-02-23T12:59:17;5.10;;;1.75;;
51010;SDS011;37038;50.182;8.624;2024-02-23T13:02:08;6.70;;;2.15;;
51010;SDS011;37038;50.182;8.624;2024-02-23T13:05:12;4.82;;;1.65;;
51010;SDS011;37038;50.182;8.624;2024-02-23T13:08:00;4.45;;;2.30;;
51010;SDS011;37038;50.182;8.624;2024-02-23T13:10:54;6.80;;;1.75;;
51010;SDS011;37038;50.182;8.624;2024-02-23T13:13:45;6.60;;;1.60;;
51010;SDS011;37038;50.182;8.624;2024-02-23T13:16:36;4.32;;;1.67;;
51010;SDS011;37038;50.182;8.624;2024-02-23T13:19:33;3.30;;;1.70;;
51010;SDS011;37038;50.182;8.624;2024-02-23T13:22:24;10.33;;;2.43;;
51010;SDS011;37038;50.182;8.624;2024-02-23T13:25:15;6.93;;;2.00;;
51010;SDS011;37038;50.182;8.624;2024-02-23T13:28:04;5.00;;;1.30;;
51010;SDS011;37038;50.182;8.624;2024-02-23T13:31:10;7.80;;;1.80;;
51010;SDS011;37038;50.182;8.624;2024-02-23T13:34:12;6.25;;;1.80;;
51010;SDS011;37038;50.182;8.624;2024-02-23T13:40:41;6.18;;;1.73;;
51010;SDS011;37038;50.182;8.624;2024-02-23T13:43:45;6.03;;;1.95;;
51010;SDS011;37038;50.182;8.624;2024-02-23T13:46:48;6.75;;;2.05;;
51010;SDS011;37038;50.182;8.624;2024-02-23T13:49:38;7.57;;;1.65;;
51010;SDS011;37038;50.182;8.624;2024-02-23T13:52:27;7.07;;;1.40;;
51010;SDS011;37038;50.182;8.624;2024-02-23T13:55:18;6.28;;;1.95;;
51010;SDS011;37038;50.182;8.624;2024-02-23T13:58:18;4.32;;;1.20;;
51010;SDS011;37038;50.182;8.624;2024-02-23T14:01:11;5.03;;;2.10;;
51010;SDS011;37038;50.182;8.624;2024-02-23T14:04:19;3.35;;;1.60;;
51010;SDS011;37038;50.182;8.624;2024-02-23T14:07:12;7.40;;;1.60;;
51010;SDS011;37038;50.182;8.624;2024-02-23T14:10:15;7.70;;;1.42;;
51010;SDS011;37038;50.182;8.624;2024-02-23T14:13:24;5.20;;;1.60;;
51010;SDS011;37038;50.182;8.624;2024-02-23T14:16:20;5.70;;;1.77;;
51010;SDS011;37038;50.182;8.624;2024-02-23T14:19:12;6.20;;;1.38;;
51010;SDS011;37038;50.182;8.624;2024-02-23T14:22:10;6.65;;;1.98;;
51010;SDS011;37038;50.182;8.624;2024-02-23T14:25:30;5.35;;;1.55;;
51010;SDS011;37038;50.182;8.624;2024-02-23T14:28:20;3.67;;;1.50;;
51010;SDS011;37038;50.182;8.624;2024-02-23T14:31:13;5.00;;;1.70;;
51010;SDS011;37038;50.182;8.624;2024-02-23T14:34:28;6.32;;;1.40;;
51010;SDS011;37038;50.182;8.624;2024-02-23T14:37:18;7.82;;;1.48;;
51010;SDS011;37038;50.182;8.624;2024-02-23T14:40:51;2.80;;;1.20;;
51010;SDS011;37038;50.182;8.624;2024-02-23T14:44:23;4.25;;;1.52;;
51010;SDS011;37038;50.182;8.624;2024-02-23T14:48:07;4.35;;;2.28;;
51010;SDS011;37038;50.182;8.624;2024-02-23T14:51:31;5.80;;;1.50;;
51010;SDS011;37038;50.182;8.624;2024-02-23T14:54:40;5.72;;;2.10;;
51010;SDS011;37038;50.182;8.624;2024-02-23T14:57:43;5.75;;;1.50;;
51010;SDS011;37038;50.182;8.624;2024-02-23T15:00:39;5.65;;;1.67;;
51010;SDS011;37038;50.182;8.624;2024-02-23T15:03:36;7.50;;;2.03;;
51010;SDS011;37038;50.182;8.624;2024-02-23T15:06:33;7.50;;;1.58;;
51010;SDS011;37038;50.182;8.624;2024-02-23T15:09:25;8.27;;;2.00;;
51010;SDS011;37038;50.182;8.624;2024-02-23T15:12:34;4.43;;;1.92;;
51010;SDS011;37038;50.182;8.624;2024-02-23T15:15:28;4.28;;;1.65;;
51010;SDS011;37038;50.182;8.624;2024-02-23T15:18:17;3.00;;;1.63;;
51010;SDS011;37038;50.182;8.624;2024-02-23T15:21:11;7.40;;;2.20;;
51010;SDS011;37038;50.182;8.624;2024-02-23T15:24:09;5.65;;;1.95;;
51010;SDS011;37038;50.182;8.624;2024-02-23T15:27:20;4.65;;;1.95;;
51010;SDS011;37038;50.182;8.624;2024-02-23T15:30:14;8.50;;;2.25;;
51010;SDS011;37038;50.182;8.624;2024-02-23T15:33:05;5.95;;;2.50;;
51010;SDS011;37038;50.182;8.624;2024-02-23T15:36:05;6.35;;;2.38;;
51010;SDS011;37038;50.182;8.624;2024-02-23T15:49:48;6.55;;;1.80;;
51010;SDS011;37038;50.182;8.624;2024-02-23T16:50:44;4.97;;;2.65;;
51010;SDS011;37038;50.182;8.624;2024-02-23T16:53:42;10.43;;;2.83;;
51010;SDS011;37038;50.182;8.624;2024-02-23T16:56:55;5.32;;;2.13;;
51010;SDS011;37038;50.182;8.624;2024-02-23T17:00:06;2.72;;;2.13;;
51010;SDS011;37038;50.182;8.624;2024-02-23T17:03:24;9.38;;;2.13;;
51010;SDS011;37038;50.182;8.624;2024-02-23T17:06:22;6.30;;;2.20;;
51010;SDS011;37038;50.182;8.624;2024-02-23T17:09:42;8.30;;;2.40;;
51010;SDS011;37038;50.182;8.624;2024-02-23T17:13:07;6.85;;;2.15;;
51010;SDS011;37038;50.182;8.624;2024-02-23T17:16:28;8.50;;;3.08;;
51010;SDS011;37038;50.182;8.624;2024-02-23T17:23:33;6.15;;;2.42;;
51010;SDS011;37038;50.182;8.624;2024-02-23T17:30:50;5.68;;;1.80;;
51010;SDS011;37038;50.182;8.624;2024-02-23T17:36:37;6.45;;;2.20;;
51010;SDS011;37038;50.182;8.624;2024-02-23T17:52:39;8.48;;;2.83;;
51010;SDS011;37038;50.182;8.624;2024-02-23T17:56:47;9.68;;;3.65;;
51010;SDS011;37038;50.182;8.624;2024-02-23T18:17:44;6.93;;;2.97;;
51010;SDS011;37038;50.182;8.624;2024-02-23T18:21:25;7.82;;;3.45;;
51010;SDS011;37038;50.182;8.624;2024-02-23T18:33:06;9.30;;;3.33;;
51010;SDS011;37038;50.182;8.624;2024-02-23T18:36:39;6.82;;;3.45;;
51010;SDS011;37038;50.182;8.624;2024-02-23T18:40:09;8.73;;;3.42;;
51010;SDS011;37038;50.182;8.624;2024-02-23T18:43:20;12.13;;;3.70;;
51010;SDS011;37038;50.182;8.624;2024-02-23T18:46:47;10.13;;;3.67;;
51010;SDS011;37038;50.182;8.624;2024-02-23T18:49:45;10.68;;;3.22;;
51010;SDS011;37038;50.182;8.624;2024-02-23T18:53:00;8.52;;;3.70;;
51010;SDS011;37038;50.182;8.624;2024-02-23T18:55:56;8.13;;;4.05;;
51010;SDS011;37038;50.182;8.624;2024-02-23T18:59:00;7.65;;;3.90;;
51010;SDS011;37038;50.182;8.624;2024-02-23T19:02:03;14.02;;;4.80;;
51010;SDS011;37038;50.182;8.624;2024-02-23T19:05:12;10.40;;;5.22;;
51010;SDS011;37038;50.182;8.624;2024-02-23T19:08:09;9.40;;;3.72;;
51010;SDS011;37038;50.182;8.624;2024-02-23T19:11:36;7.47;;;4.40;;
51010;SDS011;37038;50.182;8.624;2024-02-23T19:14:53;11.13;;;3.97;;
51010;SDS011;37038;50.182;8.624;2024-02-23T19:18:05;7.45;;;3.00;;
51010;SDS011;37038;50.182;8.624;2024-02-23T19:21:26;8.77;;;4.20;;
51010;SDS011;37038;50.182;8.624;2024-02-23T19:24:45;8.18;;;3.33;;
51010;SDS011;37038;50.182;8.624;2024-02-23T19:27:59;8.27;;;3.38;;
51010;SDS011;37038;50.182;8.624;2024-02-23T19:43:48;9.50;;;3.90;;
51010;SDS011;37038;50.182;8.624;2024-02-23T19:51:51;8.07;;;3.25;;
51010;SDS011;37038;50.182;8.624;2024-02-23T19:59:36;8.40;;;3.47;;
51010;SDS011;37038;50.182;8.624;2024-02-23T20:07:12;7.18;;;3.33;;
51010;SDS011;37038;50.182;8.624;2024-02-23T20:10:57;8.47;;;3.67;;
51010;SDS011;37038;50.182;8.624;2024-02-23T20:17:42;7.22;;;3.45;;
51010;SDS011;37038;50.182;8.624;2024-02-23T20:28:51;8.98;;;4.60;;
51010;SDS011;37038;50.182;8.624;2024-02-23T20:32:04;7.75;;;4.47;;
51010;SDS011;37038;50.182;8.624;2024-02-23T20:35:12;8.43;;;4.57;;
51010;SDS011;37038;50.182;8.624;2024-02-23T20:41:31;9.82;;;5.00;;
51010;SDS011;37038;50.182;8.624;2024-02-23T20:44:39;10.23;;;4.85;;
51010;SDS011;37038;50.182;8.624;2024-02-23T20:47:57;10.52;;;5.53;;
51010;SDS011;37038;50.182;8.624;2024-02-23T20:51:11;12.48;;;6.10;;
51010;SDS011;37038;50.182;8.624;2024-02-23T20:54:22;12.32;;;5.07;;
51010;SDS011;37038;50.182;8.624;2024-02-23T20:57:35;20.30;;;9.40;;
51010;SDS011;37038;50.182;8.624;2024-02-23T21:01:28;17.30;;;6.68;;
51010;SDS011;37038;50.182;8.624;2024-02-23T21:05:07;12.30;;;7.55;;
51010;SDS011;37038;50.182;8.624;2024-02-23T21:20:31;13.20;;;7.32;;
51010;SDS011;37038;50.182;8.624;2024-02-23T21:32:37;11.93;;;6.30;;
51010;SDS011;37038;50.182;8.624;2024-02-23T21:36:07;13.00;;;6.25;;
51010;SDS011;37038;50.182;8.624;2024-02-23T21:40:13;14.10;;;6.38;;
51010;SDS011;37038;50.182;8.624;2024-02-23T21:43:55;8.00;;;6.18;;
51010;SDS011;37038;50.182;8.624;2024-02-23T21:47:43;12.65;;;6.15;;
51010;SDS011;37038;50.182;8.624;2024-02-23T21:54:26;13.73;;;6.78;;
51010;SDS011;37038;50.182;8.624;2024-02-23T21:57:39;13.52;;;7.15;;
51010;SDS011;37038;50.182;8.624;2024-02-23T22:00:54;14.90;;;7.57;;
51010;SDS011;37038;50.182;8.624;2024-02-23T22:07:12;9.63;;;7.18;;
51010;SDS011;37038;50.182;8.624;2024-02-23T22:10:31;13.93;;;6.97;;
51010;SDS011;37038;50.182;8.624;2024-02-23T22:13:57;11.73;;;6.88;;
51010;SDS011;37038;50.182;8.624;2024-02-23T22:16:58;15.45;;;8.38;;
51010;SDS011;37038;50.182;8.624;2024-02-23T22:20:18;16.15;;;7.30;;
51010;SDS011;37038;50.182;8.624;2024-02-23T22:23:42;12.75;;;7.80;;
51010;SDS011;37038;50.182;8.624;2024-02-23T22:26:34;12.25;;;7.70;;
51010;SDS011;37038;50.182;8.624;2024-02-23T22:36:41;11.38;;;7.65;;
51010;SDS011;37038;50.182;8.624;2024-02-23T22:39:38;13.43;;;8.48;;
51010;SDS011;37038;50.182;8.624;2024-02-23T22:42:42;12.07;;;8.70;;
51010;SDS011;37038;50.182;8.624;2024-02-23T22:45:39;12.48;;;9.05;;
51010;SDS011;37038;50.182;8.624;2024-02-23T22:48:45;13.63;;;8.15;;
51010;SDS011;37038;50.182;8.624;2024-02-23T22:51:41;12.43;;;8.10;;
51010;SDS011;37038;50.182;8.624;2024-02-23T22:57:53;17.70;;;8.30;;
51010;SDS011;37038;50.182;8.624;2024-02-23T23:00:58;13.20;;;8.27;;
51010;SDS011;37038;50.182;8.624;2024-02-23T23:03:57;13.10;;;8.43;;
51010;SDS011;37038;50.182;8.624;2024-02-23T23:06:47;16.10;;;8.32;;
51010;SDS011;37038;50.182;8.624;2024-02-23T23:09:41;16.30;;;8.10;;
51010;SDS011;37038;50.182;8.624;2024-02-23T23:12:44;15.30;;;9.38;;
51010;SDS011;37038;50.182;8.624;2024-02-23T23:15:54;17.05;;;9.35;;
51010;SDS011;37038;50.182;8.624;2024-02-23T23:19:11;15.48;;;8.93;;
51010;SDS011;37038;50.182;8.624;2024-02-23T23:22:22;16.92;;;9.82;;
51010;SDS011;37038;50.182;8.624;2024-02-23T23:25:49;15.20;;;8.60;;
51010;SDS011;37038;50.182;8.624;2024-02-23T23:28:53;17.00;;;9.15;;
51010;SDS011;37038;50.182;8.624;2024-02-23T23:32:05;14.95;;;8.68;;
51010;SDS011;37038;50.182;8.624;2024-02-23T23:35:10;13.77;;;7.85;;
51010;SDS011;37038;50.182;8.624;2024-02-23T23:38:23;16.30;;;8.30;;
51010;SDS011;37038;50.182;8.624;2024-02-23T23:41:56;18.10;;;7.18;;
51010;SDS011;37038;50.182;8.624;2024-02-23T23:45:07;12.20;;;5.78;;
51010;SDS011;37038;50.182;8.624;2024-02-23T23:48:21;12.52;;;6.10;;
51010;SDS011;37038;50.182;8.624;2024-02-23T23:55:27;14.13;;;6.28;;
